createdAt,value
2019-02-28T00:01:00.249Z,168.23
2019-02-28T00:03:29.310Z,129.67
2019-02-28T00:05:58.234Z,126.30
2019-02-28T00:08:27.138Z,132.40
2019-02-28T00:10:55.997Z,135.10
2019-02-28T00:13:24.882Z,127.17
2019-02-28T00:15:53.800Z,127.80
2019-02-28T00:18:22.694Z,132.33
2019-02-28T00:20:51.568Z,224.13
2019-02-28T00:23:21.951Z,215.50
2019-02-28T00:25:50.963Z,153.33
2019-02-28T00:28:19.840Z,142.50
2019-02-28T00:30:48.746Z,150.93
2019-02-28T00:33:17.581Z,143.53
2019-02-28T00:35:46.464Z,135.70
2019-02-28T00:38:15.349Z,130.50
2019-02-28T00:40:45.122Z,130.13
2019-02-28T00:43:13.980Z,120.47
2019-02-28T00:45:42.887Z,115.90
2019-02-28T00:48:11.753Z,115.10
2019-02-28T00:50:40.606Z,97.10
2019-02-28T00:53:09.514Z,98.67
2019-02-28T00:55:38.461Z,103.17
2019-02-28T00:58:07.335Z,91.93
2019-02-28T01:00:37.004Z,92.60
2019-02-28T01:03:06.932Z,97.77
2019-02-28T01:05:36.608Z,90.27
2019-02-28T01:08:06.261Z,101.53
2019-02-28T01:10:38.946Z,148.43
2019-02-28T01:13:05.641Z,125.27
2019-02-28T01:15:34.555Z,107.53
2019-02-28T01:18:03.534Z,89.97
2019-02-28T01:20:32.392Z,100.93
2019-02-28T01:23:01.281Z,88.83
2019-02-28T01:25:30.148Z,85.47
2019-02-28T01:27:58.959Z,84.67
2019-02-28T01:30:27.862Z,98.97
2019-02-28T01:32:56.730Z,97.00
2019-02-28T01:35:25.602Z,102.27
2019-02-28T01:37:54.511Z,102.33
2019-02-28T01:40:23.395Z,107.77
2019-02-28T01:42:54.827Z,98.47
2019-02-28T01:45:23.660Z,87.33
2019-02-28T01:47:52.530Z,84.57
2019-02-28T01:50:21.373Z,88.47
2019-02-28T01:52:50.301Z,86.67
2019-02-28T01:55:19.156Z,91.43
2019-02-28T01:57:48.006Z,90.77
2019-02-28T02:03:01.256Z,87.27
2019-02-28T02:05:30.104Z,94.80
2019-02-28T02:07:59.213Z,89.37
2019-02-28T02:10:28.117Z,82.17
2019-02-28T02:12:56.992Z,86.07
2019-02-28T02:15:25.831Z,100.77
2019-02-28T02:17:54.745Z,103.03
2019-02-28T02:20:26.237Z,103.70
2019-02-28T02:22:54.092Z,103.07
2019-02-28T02:25:23.017Z,96.97
2019-02-28T02:27:53.335Z,86.07
2019-02-28T02:30:23.973Z,115.13
2019-02-28T02:32:52.901Z,127.13
2019-02-28T02:35:21.776Z,85.80
2019-02-28T02:37:50.608Z,89.63
2019-02-28T02:40:22.929Z,82.07
2019-02-28T02:42:50.196Z,85.47
2019-02-28T02:45:19.150Z,83.60
2019-02-28T02:47:48.035Z,82.43
2019-02-28T02:50:16.893Z,82.40
2019-02-28T02:52:45.746Z,83.27
2019-02-28T02:55:19.592Z,85.47
2019-02-28T02:57:51.779Z,87.87
2019-02-28T03:00:19.747Z,87.83
2019-02-28T03:02:48.648Z,89.60
2019-02-28T03:05:17.506Z,88.23
2019-02-28T03:07:46.353Z,105.53
2019-02-28T03:10:19.794Z,92.43
2019-02-28T03:12:48.906Z,93.93
2019-02-28T03:15:24.834Z,87.70
2019-02-28T03:17:49.532Z,90.90
2019-02-28T03:20:18.403Z,90.27
2019-02-28T03:22:47.254Z,87.70
2019-02-28T03:25:19.116Z,90.83
2019-02-28T03:27:55.065Z,89.23
2019-02-28T03:30:27.698Z,85.77
2019-02-28T03:32:51.029Z,82.60
2019-02-28T03:35:19.892Z,84.63
2019-02-28T03:37:48.745Z,85.87
2019-02-28T03:40:17.639Z,85.87
2019-02-28T03:42:46.478Z,87.53
2019-02-28T03:45:16.890Z,88.83
2019-02-28T03:47:45.811Z,81.80
2019-02-28T03:50:14.761Z,74.67
2019-02-28T03:52:44.710Z,77.03
2019-02-28T03:55:14.938Z,80.67
2019-02-28T03:57:43.810Z,81.90
2019-02-28T04:00:18.292Z,75.67
2019-02-28T04:02:47.160Z,73.27
2019-02-28T04:05:16.012Z,73.57
2019-02-28T04:07:52.263Z,74.47
2019-02-28T04:10:16.610Z,66.17
2019-02-28T04:12:47.141Z,66.97
2019-02-28T04:15:20.273Z,75.47
2019-02-28T04:17:49.094Z,88.73
2019-02-28T04:20:17.938Z,83.20
2019-02-28T04:22:46.842Z,89.23
2019-02-28T04:25:22.839Z,84.73
2019-02-28T04:27:46.201Z,81.13
2019-02-28T04:30:17.793Z,77.53
2019-02-28T04:32:46.637Z,78.60
2019-02-28T04:35:15.583Z,78.13
2019-02-28T04:37:46.924Z,82.33
2019-02-28T04:40:15.016Z,80.47
2019-02-28T04:42:43.868Z,83.37
2019-02-28T04:45:13.858Z,81.87
2019-02-28T04:47:42.716Z,82.93
2019-02-28T04:50:13.079Z,82.80
2019-02-28T04:52:46.480Z,81.87
2019-02-28T04:55:12.572Z,79.93
2019-02-28T04:57:41.687Z,81.63
2019-02-28T05:00:21.067Z,89.57
2019-02-28T05:02:53.709Z,77.37
2019-02-28T05:05:20.420Z,73.57
2019-02-28T05:07:49.311Z,75.33
2019-02-28T05:10:19.198Z,82.93
2019-02-28T05:12:48.668Z,84.77
2019-02-28T05:15:17.553Z,88.53
2019-02-28T05:17:46.410Z,88.83
2019-02-28T05:20:15.246Z,90.13
2019-02-28T05:22:44.166Z,89.03
2019-02-28T05:25:17.633Z,92.33
2019-02-28T05:27:43.618Z,100.00
2019-02-28T05:30:17.914Z,129.60
2019-02-28T05:32:45.001Z,147.70
2019-02-28T05:35:13.860Z,146.50
2019-02-28T05:37:46.672Z,96.37
2019-02-28T05:40:15.550Z,89.30
2019-02-28T05:42:44.398Z,90.03
2019-02-28T05:45:14.670Z,115.73
2019-02-28T05:47:46.882Z,99.73
2019-02-28T05:50:16.643Z,90.90
2019-02-28T05:52:45.474Z,90.63
2019-02-28T05:55:14.442Z,108.77
2019-02-28T05:57:44.666Z,122.17
2019-02-28T06:00:17.444Z,157.27
2019-02-28T06:02:46.305Z,151.37
2019-02-28T06:05:15.255Z,182.93
2019-02-28T06:07:44.181Z,136.83
2019-02-28T06:10:16.594Z,125.57
2019-02-28T06:12:45.475Z,119.83
2019-02-28T06:15:17.498Z,121.03
2019-02-28T06:17:46.350Z,117.57
2019-02-28T06:20:17.850Z,126.90
2019-02-28T06:22:45.744Z,137.13
2019-02-28T06:25:22.180Z,127.20
2019-02-28T06:27:49.437Z,121.07
2019-02-28T06:30:17.431Z,115.30
2019-02-28T06:32:46.380Z,118.20
2019-02-28T06:35:17.651Z,119.07
2019-02-28T06:37:45.780Z,115.30
2019-02-28T06:40:15.427Z,118.57
2019-02-28T06:42:46.741Z,115.20
2019-02-28T06:45:16.112Z,114.50
2019-02-28T06:47:48.179Z,103.87
2019-02-28T06:50:16.289Z,104.30
2019-02-28T06:52:45.217Z,108.77
2019-02-28T06:55:16.599Z,124.00
2019-02-28T06:57:45.487Z,165.73
2019-02-28T07:00:15.888Z,229.00
2019-02-28T07:02:44.742Z,231.70
2019-02-28T07:05:13.603Z,252.00
2019-02-28T07:07:45.595Z,247.63
2019-02-28T07:10:14.665Z,294.30
2019-02-28T07:12:43.970Z,209.50
2019-02-28T07:15:13.369Z,167.43
2019-02-28T07:17:42.598Z,155.53
2019-02-28T07:20:17.712Z,157.70
2019-02-28T07:22:46.582Z,167.33
2019-02-28T07:25:15.424Z,181.43
2019-02-28T07:27:44.341Z,182.07
2019-02-28T07:30:18.520Z,170.37
2019-02-28T07:32:48.517Z,145.83
2019-02-28T07:35:18.027Z,97.40
2019-02-28T07:37:46.922Z,101.20
2019-02-28T07:40:17.934Z,103.50
2019-02-28T07:42:47.013Z,111.57
2019-02-28T07:45:16.279Z,108.13
2019-02-28T07:47:45.241Z,112.00
2019-02-28T07:50:17.682Z,115.20
2019-02-28T07:52:46.633Z,121.13
2019-02-28T07:55:17.070Z,116.37
2019-02-28T07:57:51.202Z,107.40
2019-02-28T08:00:20.738Z,96.03
2019-02-28T08:02:49.582Z,101.17
2019-02-28T08:05:18.488Z,100.80
2019-02-28T08:07:52.129Z,102.80
2019-02-28T08:10:23.857Z,102.30
2019-02-28T08:12:52.701Z,101.30
2019-02-28T08:15:23.298Z,100.50
2019-02-28T08:17:52.381Z,105.00
2019-02-28T08:20:21.645Z,88.37
2019-02-28T08:22:50.513Z,107.90
2019-02-28T08:25:19.404Z,89.33
2019-02-28T08:27:48.273Z,96.07
2019-02-28T08:30:25.311Z,70.37
2019-02-28T08:32:54.163Z,72.97
2019-02-28T08:35:23.019Z,92.57
2019-02-28T08:37:56.165Z,67.87
2019-02-28T08:40:26.527Z,69.70
2019-02-28T08:42:54.438Z,55.97
2019-02-28T08:45:23.426Z,101.07
2019-02-28T08:47:55.412Z,65.03
2019-02-28T08:50:24.747Z,65.57
2019-02-28T08:52:59.294Z,40.70
2019-02-28T08:55:29.283Z,39.80
2019-02-28T08:58:04.952Z,40.43
2019-02-28T09:00:32.953Z,31.60
2019-02-28T09:03:00.988Z,30.10
2019-02-28T09:05:31.391Z,25.13
2019-02-28T09:08:00.297Z,23.43
2019-02-28T09:10:29.139Z,27.00
2019-02-28T09:12:58.000Z,32.23
2019-02-28T09:15:29.871Z,30.07
2019-02-28T09:17:59.468Z,30.60
2019-02-28T09:20:29.098Z,30.23
2019-02-28T09:23:02.210Z,28.40
2019-02-28T09:25:29.336Z,29.50
2019-02-28T09:27:58.182Z,24.13
2019-02-28T09:30:38.714Z,23.77
2019-02-28T09:33:07.587Z,24.80
2019-02-28T09:35:36.444Z,30.77
2019-02-28T09:38:07.653Z,27.30
2019-02-28T09:40:36.602Z,34.63
2019-02-28T09:43:07.071Z,27.83
2019-02-28T09:45:36.059Z,29.93
2019-02-28T09:48:04.983Z,28.87
2019-02-28T09:50:33.815Z,34.17
2019-02-28T09:53:03.121Z,28.97
2019-02-28T09:55:35.312Z,37.93
2019-02-28T09:58:02.532Z,34.60
2019-02-28T10:00:31.519Z,29.80
2019-02-28T10:03:00.391Z,32.70
2019-02-28T10:05:29.235Z,29.57
2019-02-28T10:08:01.668Z,29.57
2019-02-28T10:10:30.131Z,27.52
2019-02-28T10:12:58.967Z,27.50
2019-02-28T10:15:27.906Z,28.23
2019-02-28T10:17:56.743Z,27.43
2019-02-28T10:20:39.373Z,27.23
2019-02-28T10:23:08.266Z,34.37
2019-02-28T10:25:40.959Z,33.27
2019-02-28T10:28:07.595Z,33.20
2019-02-28T10:30:36.550Z,32.53
2019-02-28T10:33:05.387Z,34.40
2019-02-28T10:35:36.742Z,31.87
2019-02-28T10:38:04.820Z,31.60
2019-02-28T10:40:33.772Z,32.37
2019-02-28T10:43:02.660Z,31.70
2019-02-28T10:45:31.518Z,31.57
2019-02-28T10:48:03.225Z,31.23
2019-02-28T10:50:33.658Z,34.83
2019-02-28T10:53:05.558Z,34.63
2019-02-28T10:55:33.748Z,34.10
2019-02-28T10:58:03.078Z,34.73
2019-02-28T11:00:38.122Z,35.87
2019-02-28T11:03:07.424Z,33.80
2019-02-28T11:05:38.895Z,34.97
2019-02-28T11:08:09.650Z,34.93
2019-02-28T11:10:40.975Z,33.90
2019-02-28T11:13:18.210Z,29.83
2019-02-28T11:15:48.305Z,29.47
2019-02-28T11:18:17.858Z,28.93
2019-02-28T11:20:46.892Z,29.80
2019-02-28T11:23:16.021Z,30.73
2019-02-28T11:25:45.133Z,27.90
2019-02-28T11:28:14.831Z,23.97
2019-02-28T11:30:46.232Z,22.37
2019-02-28T11:33:16.377Z,20.40
2019-02-28T11:35:45.500Z,19.17
2019-02-28T11:38:20.527Z,18.13
2019-02-28T11:40:45.336Z,20.97
2019-02-28T11:43:14.514Z,18.17
2019-02-28T11:45:48.056Z,18.83
2019-02-28T11:48:20.445Z,20.37
2019-02-28T11:50:49.478Z,20.00
2019-02-28T11:53:19.158Z,21.23
2019-02-28T11:55:48.485Z,23.23
2019-02-28T11:58:18.076Z,22.50
2019-02-28T12:00:47.194Z,23.03
2019-02-28T12:03:16.079Z,23.40
2019-02-28T12:05:50.167Z,24.87
2019-02-28T12:08:15.477Z,25.00
2019-02-28T12:10:44.332Z,23.40
2019-02-28T12:13:13.195Z,25.43
2019-02-28T12:15:42.506Z,23.80
2019-02-28T12:18:11.361Z,25.37
2019-02-28T12:20:40.204Z,22.20
2019-02-28T12:23:09.100Z,18.57
2019-02-28T12:25:39.608Z,14.90
2019-02-28T12:28:08.454Z,14.70
2019-02-28T12:30:37.544Z,13.83
2019-02-28T12:33:06.383Z,14.23
2019-02-28T12:35:40.001Z,14.50
2019-02-28T12:38:06.097Z,14.70
2019-02-28T12:40:42.513Z,12.23
2019-02-28T12:43:14.616Z,11.60
2019-02-28T12:45:47.255Z,13.30
2019-02-28T12:48:15.852Z,13.70
2019-02-28T12:50:44.737Z,12.37
2019-02-28T12:53:13.577Z,14.10
2019-02-28T12:55:42.411Z,14.77
2019-02-28T12:58:11.331Z,15.00
2019-02-28T13:00:42.739Z,15.13
2019-02-28T13:03:11.896Z,15.77
2019-02-28T13:05:40.981Z,15.80
2019-02-28T13:08:09.939Z,15.60
2019-02-28T13:10:38.815Z,15.47
2019-02-28T13:13:08.035Z,15.60
2019-02-28T13:15:37.052Z,15.27
2019-02-28T13:18:08.852Z,14.90
2019-02-28T13:20:40.000Z,13.50
2019-02-28T13:23:08.869Z,13.20
2019-02-28T13:25:37.710Z,13.63
2019-02-28T13:28:07.907Z,13.47
2019-02-28T13:30:39.998Z,13.90
2019-02-28T13:33:11.012Z,13.60
2019-02-28T13:35:45.166Z,13.97
2019-02-28T13:38:17.689Z,14.10
2019-02-28T13:40:44.775Z,14.03
2019-02-28T13:43:19.993Z,13.47
2019-02-28T13:45:43.380Z,14.00
2019-02-28T13:48:12.293Z,15.50
2019-02-28T13:50:41.156Z,14.47
2019-02-28T13:53:18.533Z,14.93
2019-02-28T13:55:40.972Z,14.70
2019-02-28T13:58:09.817Z,16.17
2019-02-28T14:00:43.685Z,16.77
2019-02-28T14:03:13.377Z,16.70
2019-02-28T14:05:42.205Z,16.83
2019-02-28T14:08:12.231Z,15.53
2019-02-28T14:10:41.754Z,15.60
2019-02-28T14:13:10.719Z,16.93
2019-02-28T14:15:47.810Z,16.63
2019-02-28T14:18:15.439Z,17.17
2019-02-28T14:20:44.283Z,17.30
2019-02-28T14:23:13.149Z,18.00
2019-02-28T14:25:42.151Z,18.27
2019-02-28T14:28:11.105Z,17.90
2019-02-28T14:30:40.018Z,17.50
2019-02-28T14:33:09.307Z,17.53
2019-02-28T14:35:38.777Z,16.20
2019-02-28T14:38:07.907Z,15.07
2019-02-28T14:40:36.834Z,16.00
2019-02-28T14:43:05.773Z,16.37
2019-02-28T14:45:45.861Z,16.63
2019-02-28T14:48:14.708Z,14.13
2019-02-28T14:50:43.534Z,14.17
2019-02-28T14:53:14.274Z,16.03
2019-02-28T14:55:42.927Z,15.83
2019-02-28T14:58:11.770Z,15.20
2019-02-28T15:00:42.412Z,15.60
2019-02-28T15:03:11.355Z,15.70
2019-02-28T15:05:44.094Z,15.30
2019-02-28T15:08:15.512Z,13.37
2019-02-28T15:10:43.558Z,15.10
2019-02-28T15:13:12.508Z,18.27
2019-02-28T15:15:42.362Z,31.03
2019-02-28T15:18:13.117Z,31.00
2019-02-28T15:20:41.702Z,32.23
2019-02-28T15:23:10.598Z,29.03
2019-02-28T15:25:39.439Z,29.20
2019-02-28T15:28:10.683Z,32.80
2019-02-28T15:30:40.631Z,32.53
2019-02-28T15:33:09.471Z,30.27
2019-02-28T15:35:38.311Z,36.47
2019-02-28T15:38:09.177Z,43.37
2019-02-28T15:40:44.138Z,42.17
2019-02-28T15:43:16.862Z,47.93
2019-02-28T15:45:43.537Z,54.37
2019-02-28T15:48:12.378Z,50.40
2019-02-28T15:50:41.265Z,76.57
2019-02-28T15:53:11.296Z,69.00
2019-02-28T15:55:40.885Z,63.53
2019-02-28T15:58:09.906Z,55.77
2019-02-28T16:00:38.865Z,68.40
2019-02-28T16:03:07.716Z,70.33
2019-02-28T16:05:42.793Z,92.20
2019-02-28T16:08:10.360Z,85.77
2019-02-28T16:10:38.052Z,121.40
2019-02-28T16:13:07.705Z,119.73
2019-02-28T16:15:36.583Z,123.23
2019-02-28T16:18:08.848Z,119.33
2019-02-28T16:20:38.123Z,120.60
2019-02-28T16:23:06.821Z,123.07
2019-02-28T16:25:37.616Z,134.87
2019-02-28T16:28:08.857Z,137.57
2019-02-28T16:30:42.929Z,142.23
2019-02-28T16:33:11.739Z,143.30
2019-02-28T16:35:40.624Z,145.87
2019-02-28T16:38:10.953Z,153.27
2019-02-28T16:40:40.082Z,152.53
2019-02-28T16:43:08.935Z,140.20
2019-02-28T16:45:45.476Z,157.37
2019-02-28T16:48:14.341Z,173.83
2019-02-28T16:50:43.189Z,162.33
2019-02-28T16:53:16.160Z,165.57
2019-02-28T16:55:42.597Z,186.17
2019-02-28T16:58:11.454Z,155.17
2019-02-28T17:00:42.457Z,145.57
2019-02-28T17:03:10.970Z,200.73
2019-02-28T17:05:39.828Z,194.30
2019-02-28T17:08:08.837Z,200.73
2019-02-28T17:10:40.035Z,206.67
2019-02-28T17:13:28.401Z,192.03
2019-02-28T17:16:02.634Z,234.93
2019-02-28T17:18:34.645Z,229.40
2019-02-28T17:21:03.465Z,241.03
2019-02-28T17:23:33.712Z,193.43
2019-02-28T17:26:02.862Z,158.13
2019-02-28T17:28:49.751Z,149.53
2019-02-28T17:31:31.950Z,165.40
2019-02-28T17:34:00.808Z,183.97
2019-02-28T17:36:29.676Z,203.10
2019-02-28T17:38:58.577Z,203.77
2019-02-28T17:41:27.444Z,225.57
2019-02-28T17:44:23.350Z,283.17
2019-02-28T17:46:57.012Z,289.90
2019-02-28T17:50:05.512Z,240.97
2019-02-28T17:52:43.775Z,205.03
2019-02-28T17:55:33.053Z,190.87
2019-02-28T17:58:07.579Z,288.00
2019-02-28T18:00:48.230Z,277.80
2019-02-28T18:03:25.777Z,292.77
2019-02-28T18:06:00.198Z,285.80
2019-02-28T18:08:46.850Z,280.77
2019-02-28T18:11:21.609Z,298.10
2019-02-28T18:14:12.933Z,293.87
2019-02-28T18:17:02.924Z,295.50
2019-02-28T18:19:46.966Z,304.60
2019-02-28T18:22:35.393Z,325.07
2019-02-28T18:25:25.203Z,322.57
2019-02-28T18:28:05.850Z,279.70
2019-02-28T18:30:52.116Z,262.07
2019-02-28T18:33:21.007Z,256.40
2019-02-28T18:35:49.851Z,269.97
2019-02-28T18:38:18.696Z,275.27
2019-02-28T18:40:47.629Z,290.53
2019-02-28T18:43:16.466Z,302.53
2019-02-28T18:45:45.302Z,298.57
2019-02-28T18:48:14.676Z,293.63
2019-02-28T18:50:44.679Z,282.87
2019-02-28T18:53:13.523Z,294.30
2019-02-28T18:55:42.405Z,293.90
2019-02-28T18:58:11.267Z,270.87
2019-02-28T19:00:40.110Z,242.57
2019-02-28T19:03:09.348Z,211.57
2019-02-28T19:05:38.202Z,190.47
2019-02-28T19:08:07.047Z,203.10
2019-02-28T19:10:35.951Z,235.90
2019-02-28T19:13:04.802Z,201.37
2019-02-28T19:15:33.646Z,223.30
2019-02-28T19:18:02.559Z,209.90
2019-02-28T19:20:34.655Z,144.43
2019-02-28T19:23:03.514Z,174.07
2019-02-28T19:25:32.441Z,172.13
2019-02-28T19:28:02.094Z,176.40
2019-02-28T19:30:31.090Z,189.77
2019-02-28T19:32:59.937Z,198.73
2019-02-28T19:35:28.804Z,230.57
2019-02-28T19:37:57.653Z,288.23
2019-02-28T19:40:26.552Z,252.83
2019-02-28T19:42:55.394Z,191.50
2019-02-28T19:45:33.242Z,203.87
2019-02-28T19:48:02.087Z,267.77
2019-02-28T19:50:30.929Z,265.13
2019-02-28T19:52:59.820Z,199.10
2019-02-28T19:55:28.703Z,187.83
2019-02-28T19:57:57.519Z,186.33
2019-02-28T20:00:26.437Z,193.33
2019-02-28T20:02:55.243Z,164.83
2019-02-28T20:05:24.054Z,196.50
2019-02-28T20:07:53.171Z,172.80
2019-02-28T20:10:22.025Z,158.47
2019-02-28T20:12:50.870Z,152.13
2019-02-28T20:15:26.014Z,154.47
2019-02-28T20:17:54.882Z,203.37
2019-02-28T20:20:27.091Z,181.23
2019-02-28T20:22:57.601Z,215.13
2019-02-28T20:25:26.537Z,200.73
2019-02-28T20:27:56.158Z,196.87
2019-02-28T20:30:26.984Z,195.40
2019-02-28T20:32:56.214Z,216.10
2019-02-28T20:35:26.842Z,223.13
2019-02-28T20:37:55.614Z,218.60
2019-02-28T20:40:32.638Z,229.03
2019-02-28T20:43:01.737Z,205.07
2019-02-28T20:45:30.578Z,214.60
2019-02-28T20:47:59.437Z,191.37
2019-02-28T20:50:40.080Z,170.23
2019-02-28T20:53:08.926Z,238.90
2019-02-28T20:55:37.772Z,296.10
2019-02-28T20:58:06.830Z,306.87
2019-02-28T21:00:35.887Z,335.93
2019-02-28T21:03:05.062Z,304.77
2019-02-28T21:05:33.971Z,209.43
2019-02-28T21:08:02.898Z,207.60
2019-02-28T21:10:31.764Z,219.93
2019-02-28T21:13:00.656Z,224.97
2019-02-28T21:15:29.509Z,245.07
2019-02-28T21:17:58.301Z,246.33
2019-02-28T21:20:27.453Z,244.60
2019-02-28T21:22:56.338Z,241.47
2019-02-28T21:25:25.173Z,195.17
2019-02-28T21:27:54.079Z,190.67
2019-02-28T21:30:24.130Z,220.53
2019-02-28T21:32:52.957Z,251.83
2019-02-28T21:35:22.480Z,293.93
2019-02-28T21:37:51.355Z,266.13
2019-02-28T21:40:23.432Z,172.00
2019-02-28T21:42:52.385Z,173.47
2019-02-28T21:45:26.265Z,160.13
2019-02-28T21:47:55.144Z,177.60
2019-02-28T21:50:24.420Z,196.00
2019-02-28T21:52:53.262Z,202.43
2019-02-28T21:55:22.174Z,205.97
2019-02-28T21:57:51.074Z,201.53
2019-02-28T22:00:27.930Z,171.27
2019-02-28T22:02:56.848Z,175.77
2019-02-28T22:05:25.698Z,196.70
2019-02-28T22:07:54.556Z,204.47
2019-02-28T22:10:23.452Z,227.67
2019-02-28T22:12:52.300Z,263.90
2019-02-28T22:15:22.377Z,249.00
2019-02-28T22:17:51.259Z,252.10
2019-02-28T22:20:22.859Z,237.87
2019-02-28T22:22:51.698Z,184.77
2019-02-28T22:25:20.615Z,194.77
2019-02-28T22:27:49.457Z,180.33
2019-02-28T22:30:42.840Z,203.30
2019-02-28T22:33:25.287Z,207.33
2019-02-28T22:36:07.841Z,192.90
2019-02-28T22:38:36.708Z,206.17
2019-02-28T22:41:05.549Z,226.40
2019-02-28T22:43:34.481Z,222.47
2019-02-28T22:46:03.342Z,212.77
2019-02-28T22:48:32.179Z,233.87
2019-02-28T22:51:01.066Z,236.60
2019-02-28T22:53:29.926Z,264.73
2019-02-28T22:55:58.776Z,271.33
2019-02-28T22:58:27.663Z,278.40
2019-02-28T23:01:14.576Z,335.13
2019-02-28T23:03:43.243Z,304.13
2019-02-28T23:06:12.112Z,351.03
2019-02-28T23:08:40.975Z,315.33
2019-02-28T23:11:09.868Z,256.17
2019-02-28T23:13:38.721Z,241.97
2019-02-28T23:16:08.406Z,204.50
2019-02-28T23:18:37.461Z,172.37
2019-02-28T23:21:06.323Z,154.30
2019-02-28T23:23:35.154Z,155.93
2019-02-28T23:26:09.527Z,142.43
2019-02-28T23:28:44.761Z,143.73
2019-02-28T23:31:25.389Z,144.97
2019-02-28T23:34:01.322Z,163.37
2019-02-28T23:36:27.111Z,166.23
2019-02-28T23:38:56.000Z,147.60
2019-02-28T23:41:24.846Z,153.93
2019-02-28T23:43:53.699Z,155.67
2019-02-28T23:46:22.637Z,180.40
2019-02-28T23:48:51.474Z,186.73
2019-02-28T23:51:20.340Z,179.70
2019-02-28T23:53:49.212Z,195.03
2019-02-28T23:56:18.071Z,220.33
2019-02-28T23:58:46.927Z,203.83
